Time;durP1;ratioP1;P1;durP2;ratioP2;P2;SDS_P1;SDS_P2;PMS_P1;PMS_P2;Temp;Humidity;BMP_temperature;BMP_pressure;BME280_temperature;BME280_humidity;BME280_pressure;Samples;Min_cycle;Max_cycle;Signal;HPM_P1;HPM_P2
2024/02/16 00:02:01;;;;;;;5.05;1.73;;;;;;;;;;5056062;28;20053;-65
2024/02/16 00:04:27;;;;;;;2.90;1.40;;;;;;;;;;5055749;28;20060;-64
2024/02/16 00:06:56;;;;;;;2.92;1.50;;;;;;;;;;5071382;28;20433;-65
2024/02/16 00:09:22;;;;;;;4.07;1.40;;;;;;;;;;5075281;28;20052;-65
2024/02/16 00:11:50;;;;;;;3.38;1.30;;;;;;;;;;5071124;28;20064;-65
2024/02/16 00:14:17;;;;;;;3.35;1.42;;;;;;;;;;5066340;28;20064;-64
2024/02/16 00:16:44;;;;;;;3.60;1.55;;;;;;;;;;5056832;28;20052;-64
2024/02/16 00:19:11;;;;;;;3.30;1.50;;;;;;;;;;5060057;28;20052;-64
2024/02/16 00:21:39;;;;;;;3.55;1.63;;;;;;;;;;5056487;28;20053;-64
2024/02/16 00:24:08;;;;;;;2.20;1.40;;;;;;;;;;5055042;28;20419;-64
2024/02/16 00:26:35;;;;;;;3.83;1.40;;;;;;;;;;5069315;28;20160;-64
2024/02/16 00:29:01;;;;;;;3.15;1.42;;;;;;;;;;5070558;28;20387;-64
2024/02/16 00:31:32;;;;;;;4.05;1.27;;;;;;;;;;5068397;28;20053;-64
2024/02/16 00:33:58;;;;;;;2.25;1.23;;;;;;;;;;5061336;28;20052;-65
2024/02/16 00:36:27;;;;;;;3.35;1.35;;;;;;;;;;5055044;28;20524;-64
2024/02/16 00:38:53;;;;;;;3.13;1.40;;;;;;;;;;5058789;28;20052;-65
2024/02/16 00:41:22;;;;;;;3.45;1.30;;;;;;;;;;5055592;28;20052;-64
2024/02/16 00:43:49;;;;;;;3.90;1.30;;;;;;;;;;5061408;28;20048;-64
2024/02/16 00:46:16;;;;;;;2.00;1.15;;;;;;;;;;5063492;28;20060;-63
2024/02/16 00:48:43;;;;;;;2.92;1.40;;;;;;;;;;5055043;28;20492;-64
2024/02/16 00:51:10;;;;;;;3.20;1.50;;;;;;;;;;5064830;28;20056;-65
2024/02/16 00:53:36;;;;;;;2.63;1.20;;;;;;;;;;5054526;28;20049;-64
2024/02/16 00:56:03;;;;;;;4.63;1.60;;;;;;;;;;5055847;28;20045;-64
2024/02/16 00:58:32;;;;;;;2.25;1.50;;;;;;;;;;5057791;28;20368;-64
2024/02/16 01:00:58;;;;;;;2.53;1.15;;;;;;;;;;5054910;28;20060;-63
2024/02/16 01:03:26;;;;;;;2.78;1.30;;;;;;;;;;5059937;28;20053;-64
2024/02/16 01:05:52;;;;;;;3.17;1.55;;;;;;;;;;5056365;28;20048;-64
2024/02/16 01:08:19;;;;;;;4.22;1.60;;;;;;;;;;5053389;28;20053;-63
2024/02/16 01:10:46;;;;;;;3.10;1.50;;;;;;;;;;5054524;28;20049;-63
2024/02/16 01:13:13;;;;;;;3.25;1.40;;;;;;;;;;5057967;28;20064;-64
2024/02/16 01:15:42;;;;;;;2.97;1.40;;;;;;;;;;5057353;28;20049;-64
2024/02/16 01:18:09;;;;;;;2.78;1.55;;;;;;;;;;5054092;28;20064;-64
2024/02/16 01:20:36;;;;;;;3.00;1.42;;;;;;;;;;5057879;28;20513;-63
2024/02/16 01:23:04;;;;;;;3.38;1.73;;;;;;;;;;5070118;28;20060;-64
2024/02/16 01:25:31;;;;;;;3.03;1.40;;;;;;;;;;5064468;28;20063;-64
2024/02/16 01:27:58;;;;;;;3.10;1.52;;;;;;;;;;5055673;28;20423;-65
2024/02/16 01:30:25;;;;;;;3.08;1.40;;;;;;;;;;5065073;28;20079;-66
2024/02/16 01:32:53;;;;;;;3.28;1.65;;;;;;;;;;5054305;28;20090;-64
2024/02/16 01:35:20;;;;;;;4.63;1.33;;;;;;;;;;5062290;28;20071;-64
2024/02/16 01:37:47;;;;;;;3.10;1.63;;;;;;;;;;5054110;28;20052;-64
2024/02/16 01:40:16;;;;;;;2.20;1.30;;;;;;;;;;5066104;28;20045;-63
2024/02/16 01:42:43;;;;;;;3.35;1.55;;;;;;;;;;5052245;28;20079;-64
2024/02/16 01:45:12;;;;;;;4.07;1.65;;;;;;;;;;5056803;28;20352;-64
2024/02/16 01:47:39;;;;;;;2.30;1.30;;;;;;;;;;5066742;28;20052;-64
2024/02/16 01:50:08;;;;;;;3.13;1.50;;;;;;;;;;5060401;28;20052;-63
2024/02/16 01:52:36;;;;;;;3.50;1.70;;;;;;;;;;5055719;28;20044;-64
2024/02/16 01:55:03;;;;;;;5.30;1.75;;;;;;;;;;5053489;28;20431;-64
2024/02/16 01:57:30;;;;;;;2.13;1.17;;;;;;;;;;5070997;28;20061;-64
2024/02/16 01:59:57;;;;;;;3.00;1.30;;;;;;;;;;5055441;28;20360;-64
2024/02/16 02:02:24;;;;;;;3.10;1.23;;;;;;;;;;5056898;28;20063;-65
2024/02/16 02:04:51;;;;;;;2.65;1.40;;;;;;;;;;5053332;28;20052;-64
2024/02/16 02:07:20;;;;;;;2.30;1.42;;;;;;;;;;5054039;28;20044;-64
2024/02/16 02:09:47;;;;;;;3.38;1.30;;;;;;;;;;5056851;28;20055;-64
2024/02/16 02:12:14;;;;;;;3.30;1.63;;;;;;;;;;5062895;28;20055;-64
2024/02/16 02:14:41;;;;;;;3.50;1.73;;;;;;;;;;5064045;28;20068;-65
2024/02/16 02:17:08;;;;;;;2.88;1.60;;;;;;;;;;5063232;28;20048;-64
2024/02/16 02:19:35;;;;;;;2.15;1.23;;;;;;;;;;5054298;28;20507;-64
2024/02/16 02:22:02;;;;;;;2.95;1.40;;;;;;;;;;5054657;28;20056;-63
2024/02/16 02:24:30;;;;;;;3.15;1.40;;;;;;;;;;5053535;28;20057;-64
2024/02/16 02:26:58;;;;;;;2.65;1.30;;;;;;;;;;5062228;28;20414;-64
2024/02/16 02:29:24;;;;;;;2.97;1.58;;;;;;;;;;5053468;28;20056;-64
2024/02/16 02:31:51;;;;;;;4.80;1.50;;;;;;;;;;5056559;28;20044;-64
2024/02/16 02:34:18;;;;;;;3.97;1.58;;;;;;;;;;5063115;28;20048;-64
2024/02/16 02:36:45;;;;;;;2.97;1.48;;;;;;;;;;5055117;28;20048;-64
2024/02/16 02:39:13;;;;;;;3.53;1.73;;;;;;;;;;5069783;28;20056;-64
2024/02/16 02:41:41;;;;;;;2.95;1.42;;;;;;;;;;5055376;28;20053;-64
2024/02/16 02:44:08;;;;;;;3.10;1.50;;;;;;;;;;5053543;28;20166;-64
2024/02/16 02:46:35;;;;;;;3.70;1.73;;;;;;;;;;5052231;28;20052;-64
2024/02/16 02:49:01;;;;;;;3.70;1.63;;;;;;;;;;5069181;28;20059;-63
2024/02/16 02:51:28;;;;;;;2.78;1.40;;;;;;;;;;5051913;28;20143;-64
2024/02/16 02:53:55;;;;;;;3.75;1.50;;;;;;;;;;5053112;28;20048;-64
2024/02/16 02:56:22;;;;;;;3.65;1.70;;;;;;;;;;5057839;28;20384;-64
2024/02/16 02:58:50;;;;;;;4.65;1.60;;;;;;;;;;5072139;28;20416;-63
2024/02/16 03:01:19;;;;;;;4.57;1.70;;;;;;;;;;5056073;28;20049;-63
2024/02/16 03:03:46;;;;;;;3.40;1.48;;;;;;;;;;5067330;28;20048;-63
2024/02/16 03:06:13;;;;;;;3.42;1.70;;;;;;;;;;5067561;28;20403;-64
2024/02/16 03:08:40;;;;;;;4.82;1.70;;;;;;;;;;5067799;28;20048;-64
2024/02/16 03:11:07;;;;;;;3.50;1.65;;;;;;;;;;5061769;28;20418;-63
2024/02/16 03:13:34;;;;;;;2.58;1.30;;;;;;;;;;5053264;28;20052;-64
2024/02/16 03:16:03;;;;;;;3.72;1.63;;;;;;;;;;5055768;28;20502;-63
2024/02/16 03:18:30;;;;;;;3.37;1.30;;;;;;;;;;5067628;28;20055;-63
2024/02/16 03:20:57;;;;;;;2.88;1.45;;;;;;;;;;5052316;28;20056;-63
2024/02/16 03:23:24;;;;;;;4.45;1.50;;;;;;;;;;5052883;28;20060;-63
2024/02/16 03:25:51;;;;;;;3.15;1.60;;;;;;;;;;5053941;28;20051;-63
2024/02/16 03:28:17;;;;;;;3.78;1.52;;;;;;;;;;5052540;28;20053;-63
2024/02/16 03:30:45;;;;;;;3.25;1.40;;;;;;;;;;5057445;28;20059;-63
2024/02/16 03:33:13;;;;;;;2.25;1.40;;;;;;;;;;5060032;28;20123;-61
2024/02/16 03:35:40;;;;;;;2.58;1.40;;;;;;;;;;5054762;28;20056;-63
2024/02/16 03:38:07;;;;;;;3.63;1.80;;;;;;;;;;5060852;28;20522;-63
2024/02/16 03:40:34;;;;;;;4.25;1.38;;;;;;;;;;5053784;28;20179;-62
2024/02/16 03:43:01;;;;;;;3.05;1.52;;;;;;;;;;5052031;28;20076;-64
2024/02/16 03:45:28;;;;;;;2.63;1.35;;;;;;;;;;5051497;28;20055;-64
2024/02/16 03:47:55;;;;;;;3.15;1.40;;;;;;;;;;5052038;28;20065;-64
2024/02/16 03:50:23;;;;;;;3.67;1.50;;;;;;;;;;5055100;28;20423;-64
2024/02/16 03:52:50;;;;;;;3.67;1.50;;;;;;;;;;5052357;28;20167;-63
2024/02/16 03:55:17;;;;;;;5.13;1.95;;;;;;;;;;5051965;28;20384;-64
2024/02/16 03:57:43;;;;;;;3.90;1.52;;;;;;;;;;5064160;28;20447;-64
2024/02/16 04:00:12;;;;;;;3.17;1.30;;;;;;;;;;5058156;28;20052;-64
2024/02/16 04:02:39;;;;;;;2.13;1.40;;;;;;;;;;5051072;28;20061;-64
2024/02/16 04:05:07;;;;;;;3.15;1.60;;;;;;;;;;5057908;28;20056;-64
2024/02/16 04:07:36;;;;;;;3.92;1.73;;;;;;;;;;5055733;28;20055;-65
2024/02/16 04:10:02;;;;;;;4.18;1.60;;;;;;;;;;5065996;28;20048;-64
2024/02/16 04:12:29;;;;;;;3.40;1.50;;;;;;;;;;5056731;28;20494;-64
2024/02/16 04:14:56;;;;;;;3.70;1.60;;;;;;;;;;5051462;28;20432;-63
2024/02/16 04:17:23;;;;;;;3.60;1.73;;;;;;;;;;5051273;28;20045;-63
2024/02/16 04:19:50;;;;;;;4.40;1.48;;;;;;;;;;5051967;28;20064;-63
2024/02/16 04:22:16;;;;;;;2.45;1.40;;;;;;;;;;5054136;28;20399;-64
2024/02/16 04:24:45;;;;;;;5.45;1.60;;;;;;;;;;5051436;28;20049;-64
2024/02/16 04:27:11;;;;;;;5.15;1.67;;;;;;;;;;5051540;28;20056;-64
2024/02/16 04:29:38;;;;;;;2.72;1.60;;;;;;;;;;5058294;28;20052;-64
2024/02/16 04:32:05;;;;;;;3.88;1.60;;;;;;;;;;5051760;28;20507;-64
2024/02/16 04:34:32;;;;;;;3.80;1.55;;;;;;;;;;5051321;28;20060;-64
2024/02/16 04:36:59;;;;;;;3.78;1.80;;;;;;;;;;5063856;28;20048;-64
2024/02/16 04:39:25;;;;;;;4.53;1.77;;;;;;;;;;5062343;28;20052;-63
2024/02/16 04:41:53;;;;;;;4.03;1.88;;;;;;;;;;5055500;28;20063;-64
2024/02/16 04:44:20;;;;;;;4.47;1.92;;;;;;;;;;5059755;28;20060;-64
2024/02/16 04:46:47;;;;;;;3.60;2.00;;;;;;;;;;5054925;28;20049;-63
2024/02/16 04:49:14;;;;;;;4.32;1.33;;;;;;;;;;5061338;28;20049;-64
2024/02/16 04:51:41;;;;;;;3.65;1.92;;;;;;;;;;5055335;28;20060;-64
2024/02/16 04:54:07;;;;;;;2.83;1.50;;;;;;;;;;5062943;28;20052;-64
2024/02/16 04:56:34;;;;;;;3.03;1.73;;;;;;;;;;5055376;28;20049;-64
2024/02/16 04:59:02;;;;;;;3.28;1.70;;;;;;;;;;5055630;28;20068;-65
2024/02/16 05:01:29;;;;;;;3.63;1.63;;;;;;;;;;5055102;28;20399;-65
2024/02/16 05:03:56;;;;;;;3.83;1.63;;;;;;;;;;5055109;28;20057;-65
2024/02/16 05:06:23;;;;;;;4.28;1.85;;;;;;;;;;5055170;28;20152;-65
2024/02/16 05:08:50;;;;;;;3.58;1.70;;;;;;;;;;5054851;28;20060;-65
2024/02/16 05:11:17;;;;;;;3.33;1.80;;;;;;;;;;5055698;28;20522;-64
2024/02/16 05:13:44;;;;;;;4.25;2.00;;;;;;;;;;5054469;28;20452;-65
2024/02/16 05:16:12;;;;;;;2.88;1.60;;;;;;;;;;5054630;28;20057;-64
2024/02/16 05:18:40;;;;;;;4.18;1.77;;;;;;;;;;5054308;28;20526;-64
2024/02/16 05:21:07;;;;;;;4.72;1.80;;;;;;;;;;5069591;28;20045;-64
2024/02/16 05:23:33;;;;;;;6.45;1.98;;;;;;;;;;5054250;28;20049;-64
2024/02/16 05:26:00;;;;;;;4.20;1.80;;;;;;;;;;5067829;28;20052;-65
2024/02/16 05:28:27;;;;;;;4.85;1.80;;;;;;;;;;5060968;28;20053;-64
2024/02/16 05:30:55;;;;;;;3.15;1.65;;;;;;;;;;5068425;28;20049;-65
2024/02/16 05:33:23;;;;;;;3.50;2.00;;;;;;;;;;5054182;28;20059;-65
2024/02/16 05:35:54;;;;;;;3.67;1.90;;;;;;;;;;5053988;28;20061;-65
2024/02/16 05:38:32;;;;;;;3.65;1.45;;;;;;;;;;5056472;28;20049;-65
2024/02/16 05:40:58;;;;;;;3.15;1.70;;;;;;;;;;5055082;28;20415;-64
2024/02/16 05:43:25;;;;;;;4.38;1.85;;;;;;;;;;5069038;28;20410;-65
2024/02/16 05:45:52;;;;;;;2.45;1.52;;;;;;;;;;5073869;28;20067;-65
2024/02/16 05:48:19;;;;;;;2.83;1.58;;;;;;;;;;5074022;28;20123;-65
2024/02/16 05:50:47;;;;;;;3.10;1.95;;;;;;;;;;5055446;28;20068;-65
2024/02/16 05:53:14;;;;;;;2.95;1.63;;;;;;;;;;5054360;28;20053;-65
2024/02/16 05:55:44;;;;;;;5.85;1.70;;;;;;;;;;5053758;28;20056;-65
2024/02/16 05:58:12;;;;;;;3.05;1.60;;;;;;;;;;5053900;28;20049;-65
2024/02/16 06:00:38;;;;;;;4.78;2.10;;;;;;;;;;5053764;28;20064;-64
2024/02/16 06:03:08;;;;;;;3.83;2.03;;;;;;;;;;5055120;28;20064;-65
2024/02/16 06:05:35;;;;;;;3.50;1.50;;;;;;;;;;5073493;28;20423;-64
2024/02/16 06:08:03;;;;;;;3.28;1.58;;;;;;;;;;5067042;28;20408;-65
2024/02/16 06:10:31;;;;;;;2.80;1.70;;;;;;;;;;5072872;28;20518;-65
2024/02/16 06:12:57;;;;;;;3.47;1.80;;;;;;;;;;5073669;28;20496;-65
2024/02/16 06:15:25;;;;;;;5.97;2.05;;;;;;;;;;5073331;28;20483;-65
2024/02/16 06:17:51;;;;;;;3.97;1.63;;;;;;;;;;5067697;28;20056;-65
2024/02/16 06:20:18;;;;;;;4.95;2.10;;;;;;;;;;5053791;28;20138;-65
2024/02/16 06:22:45;;;;;;;3.65;1.63;;;;;;;;;;5054581;28;20053;-65
2024/02/16 06:25:13;;;;;;;3.22;1.75;;;;;;;;;;5053608;28;20053;-65
2024/02/16 06:27:40;;;;;;;4.65;1.92;;;;;;;;;;5052928;28;20404;-65
2024/02/16 06:30:12;;;;;;;2.80;1.88;;;;;;;;;;5054390;28;20076;-65
2024/02/16 06:32:39;;;;;;;2.63;1.63;;;;;;;;;;5062172;28;20055;-65
2024/02/16 06:35:08;;;;;;;3.08;1.70;;;;;;;;;;5068406;28;20095;-65
2024/02/16 06:37:34;;;;;;;4.38;1.70;;;;;;;;;;5054987;28;20045;-65
2024/02/16 06:40:00;;;;;;;3.28;2.13;;;;;;;;;;5056090;28;20075;-65
2024/02/16 06:42:29;;;;;;;4.90;2.03;;;;;;;;;;5055132;28;20127;-64
2024/02/16 06:44:56;;;;;;;4.00;1.90;;;;;;;;;;5055633;28;20060;-64
2024/02/16 06:47:25;;;;;;;5.55;2.00;;;;;;;;;;5070704;28;20146;-64
2024/02/16 06:49:52;;;;;;;4.68;2.03;;;;;;;;;;5068040;28;20384;-64
2024/02/16 06:52:19;;;;;;;3.22;1.85;;;;;;;;;;5069280;28;20048;-63
2024/02/16 06:54:46;;;;;;;4.60;1.80;;;;;;;;;;5052930;28;20049;-64
2024/02/16 06:57:12;;;;;;;4.07;2.00;;;;;;;;;;5053834;28;20045;-64
2024/02/16 06:59:41;;;;;;;4.78;2.15;;;;;;;;;;5052564;28;20053;-64
2024/02/16 07:02:09;;;;;;;4.78;2.55;;;;;;;;;;5052590;28;20053;-64
2024/02/16 07:04:36;;;;;;;6.13;2.20;;;;;;;;;;5052212;28;20053;-64
2024/02/16 07:07:03;;;;;;;3.15;1.55;;;;;;;;;;5052903;28;20052;-65
2024/02/16 07:09:30;;;;;;;3.72;1.98;;;;;;;;;;5053697;28;20476;-64
2024/02/16 07:11:58;;;;;;;3.92;2.10;;;;;;;;;;5053643;28;20065;-65
2024/02/16 07:14:25;;;;;;;4.43;2.28;;;;;;;;;;5056214;28;20049;-64
2024/02/16 07:16:53;;;;;;;3.97;1.95;;;;;;;;;;5052733;28;20075;-64
2024/02/16 07:19:20;;;;;;;4.72;2.15;;;;;;;;;;5059659;28;20060;-64
2024/02/16 07:21:47;;;;;;;4.72;2.20;;;;;;;;;;5072657;28;20163;-64
2024/02/16 07:24:15;;;;;;;4.82;1.92;;;;;;;;;;5056693;28;20076;-64
2024/02/16 07:26:42;;;;;;;3.35;2.10;;;;;;;;;;5056966;28;20060;-64
2024/02/16 07:29:09;;;;;;;3.22;1.92;;;;;;;;;;5060543;28;20052;-65
2024/02/16 07:31:36;;;;;;;3.72;2.20;;;;;;;;;;5065073;28;20049;-64
2024/02/16 07:34:04;;;;;;;4.95;2.42;;;;;;;;;;5072180;28;20059;-65
2024/02/16 07:36:31;;;;;;;4.00;2.33;;;;;;;;;;5072362;28;20096;-65
2024/02/16 07:38:59;;;;;;;3.72;2.03;;;;;;;;;;5062955;28;20049;-65
2024/02/16 07:41:27;;;;;;;5.18;2.03;;;;;;;;;;5052554;28;20400;-65
2024/02/16 07:43:54;;;;;;;5.50;2.22;;;;;;;;;;5053008;28;20064;-65
2024/02/16 07:46:20;;;;;;;6.25;2.05;;;;;;;;;;5066397;28;20053;-65
2024/02/16 07:48:47;;;;;;;4.45;2.38;;;;;;;;;;5072553;28;20057;-66
2024/02/16 07:51:15;;;;;;;5.00;1.90;;;;;;;;;;5063233;28;20057;-65
2024/02/16 07:53:44;;;;;;;3.90;2.13;;;;;;;;;;5052446;28;20064;-65
2024/02/16 07:56:11;;;;;;;4.20;2.20;;;;;;;;;;5054026;28;20136;-65
2024/02/16 07:58:38;;;;;;;4.38;2.42;;;;;;;;;;5052434;28;20053;-64
2024/02/16 08:01:06;;;;;;;5.13;2.50;;;;;;;;;;5059534;28;20471;-65
2024/02/16 08:03:35;;;;;;;4.43;2.42;;;;;;;;;;5072122;28;20052;-64
2024/02/16 08:06:02;;;;;;;4.35;2.20;;;;;;;;;;5079086;28;20057;-63
2024/02/16 08:08:30;;;;;;;4.80;2.10;;;;;;;;;;5070001;28;20059;-65
2024/02/16 08:10:56;;;;;;;6.38;2.45;;;;;;;;;;5085198;28;20055;-65
2024/02/16 08:13:23;;;;;;;4.40;2.30;;;;;;;;;;5079190;28;20060;-64
2024/02/16 08:15:51;;;;;;;5.60;2.42;;;;;;;;;;5066553;28;20057;-65
2024/02/16 08:18:19;;;;;;;5.18;2.30;;;;;;;;;;5067300;28;20068;-65
2024/02/16 08:20:46;;;;;;;5.43;2.03;;;;;;;;;;5073221;28;20511;-65
2024/02/16 08:23:13;;;;;;;3.65;1.90;;;;;;;;;;5076982;28;20412;-65
2024/02/16 08:25:41;;;;;;;4.55;1.95;;;;;;;;;;5070125;28;20056;-64
2024/02/16 08:28:08;;;;;;;3.97;1.92;;;;;;;;;;5090064;28;20040;-65
2024/02/16 08:30:35;;;;;;;4.38;2.00;;;;;;;;;;5082633;28;20480;-63
2024/02/16 08:33:02;;;;;;;10.07;2.55;;;;;;;;;;5073850;28;20048;-64
2024/02/16 08:35:29;;;;;;;3.65;2.00;;;;;;;;;;5074921;28;20056;-63
2024/02/16 08:37:56;;;;;;;5.43;2.03;;;;;;;;;;5068148;28;20060;-64
2024/02/16 08:40:23;;;;;;;4.75;2.05;;;;;;;;;;5067297;28;20056;-65
2024/02/16 08:42:51;;;;;;;3.83;2.10;;;;;;;;;;5074175;28;20059;-65
2024/02/16 08:45:18;;;;;;;3.80;2.05;;;;;;;;;;5070581;28;20048;-65
2024/02/16 08:47:45;;;;;;;3.90;1.83;;;;;;;;;;5069239;28;20060;-65
2024/02/16 08:50:12;;;;;;;4.63;1.95;;;;;;;;;;5069809;28;20499;-65
2024/02/16 08:52:39;;;;;;;3.15;1.88;;;;;;;;;;5083717;28;20414;-65
2024/02/16 08:55:06;;;;;;;3.55;1.98;;;;;;;;;;5084861;28;20052;-64
2024/02/16 08:57:33;;;;;;;4.85;2.22;;;;;;;;;;5082047;28;20414;-65
2024/02/16 09:00:01;;;;;;;7.50;2.20;;;;;;;;;;5089536;28;20043;-65
2024/02/16 09:02:28;;;;;;;6.95;2.25;;;;;;;;;;5075759;28;20053;-64
2024/02/16 09:04:55;;;;;;;5.07;2.30;;;;;;;;;;5070227;28;20574;-65
2024/02/16 09:07:24;;;;;;;4.72;2.30;;;;;;;;;;5072318;28;20068;-65
2024/02/16 09:09:50;;;;;;;3.40;2.28;;;;;;;;;;5069467;28;20059;-64
2024/02/16 09:12:17;;;;;;;5.82;2.47;;;;;;;;;;5070602;28;20060;-65
2024/02/16 09:14:44;;;;;;;4.72;2.10;;;;;;;;;;5077261;28;20056;-65
2024/02/16 09:17:13;;;;;;;4.50;2.17;;;;;;;;;;5076254;28;20053;-65
2024/02/16 09:19:40;;;;;;;6.38;2.67;;;;;;;;;;5068374;28;20051;-65
2024/02/16 09:22:07;;;;;;;5.38;2.30;;;;;;;;;;5070025;28;20045;-65
2024/02/16 09:24:33;;;;;;;3.47;1.90;;;;;;;;;;5066003;28;20048;-65
2024/02/16 09:27:04;;;;;;;4.65;2.08;;;;;;;;;;5070899;28;20397;-63
2024/02/16 09:29:30;;;;;;;3.70;2.08;;;;;;;;;;5074085;28;20049;-65
2024/02/16 09:31:57;;;;;;;4.80;2.38;;;;;;;;;;5066076;28;20052;-65
2024/02/16 09:34:25;;;;;;;8.32;2.75;;;;;;;;;;5067140;28;20065;-65
2024/02/16 09:36:52;;;;;;;8.77;2.70;;;;;;;;;;5077582;28;20483;-65
2024/02/16 09:39:19;;;;;;;7.65;2.28;;;;;;;;;;5075660;28;20328;-65
2024/02/16 09:41:49;;;;;;;6.10;2.15;;;;;;;;;;5065678;28;20067;-64
2024/02/16 09:44:16;;;;;;;7.15;2.65;;;;;;;;;;5077239;28;20060;-65
2024/02/16 09:46:43;;;;;;;5.60;2.00;;;;;;;;;;5077312;28;20060;-65
2024/02/16 09:49:10;;;;;;;4.25;2.20;;;;;;;;;;5068781;28;20055;-65
2024/02/16 09:51:39;;;;;;;3.40;2.10;;;;;;;;;;5069278;28;20143;-65
2024/02/16 09:54:07;;;;;;;6.47;2.13;;;;;;;;;;5068367;28;20048;-64
2024/02/16 09:56:33;;;;;;;6.15;2.30;;;;;;;;;;5069204;28;20072;-63
2024/02/16 09:59:00;;;;;;;5.05;1.95;;;;;;;;;;5079177;28;20056;-65
2024/02/16 10:01:28;;;;;;;6.43;2.40;;;;;;;;;;5068196;28;20053;-65
2024/02/16 10:03:55;;;;;;;5.13;2.10;;;;;;;;;;5074643;28;20052;-65
2024/02/16 10:06:22;;;;;;;6.45;2.33;;;;;;;;;;5069074;28;20055;-65
2024/02/16 10:08:51;;;;;;;6.28;2.72;;;;;;;;;;5073753;28;20049;-65
2024/02/16 10:11:19;;;;;;;5.50;2.20;;;;;;;;;;5059837;28;20056;-65
2024/02/16 10:13:54;;;;;;;5.82;2.30;;;;;;;;;;5053598;28;20045;-65
2024/02/16 10:16:21;;;;;;;5.05;2.47;;;;;;;;;;5061911;28;20055;-65
2024/02/16 10:18:48;;;;;;;7.25;2.47;;;;;;;;;;5073053;28;20044;-65
2024/02/16 10:21:14;;;;;;;5.20;2.47;;;;;;;;;;5059363;28;20057;-65
2024/02/16 10:23:41;;;;;;;3.83;2.05;;;;;;;;;;5071117;28;20064;-65
2024/02/16 10:26:09;;;;;;;6.00;2.20;;;;;;;;;;5060991;28;20056;-65
2024/02/16 10:28:36;;;;;;;4.60;2.50;;;;;;;;;;5068003;28;20092;-65
2024/02/16 10:31:05;;;;;;;8.55;2.67;;;;;;;;;;5061882;28;20063;-65
2024/02/16 10:33:33;;;;;;;7.73;2.90;;;;;;;;;;5071227;28;20052;-66
2024/02/16 10:36:02;;;;;;;7.50;2.50;;;;;;;;;;5073574;28;20830;-65
2024/02/16 10:38:30;;;;;;;5.65;2.25;;;;;;;;;;5063933;28;20048;-66
2024/02/16 10:40:57;;;;;;;5.05;2.60;;;;;;;;;;5064166;28;20056;-66
2024/02/16 10:43:26;;;;;;;4.68;2.47;;;;;;;;;;5063200;28;20067;-65
2024/02/16 10:45:53;;;;;;;7.47;2.40;;;;;;;;;;5066570;28;20053;-65
2024/02/16 10:48:20;;;;;;;4.88;2.65;;;;;;;;;;5070258;28;20056;-65
2024/02/16 10:50:50;;;;;;;5.22;2.58;;;;;;;;;;5056148;28;20060;-65
2024/02/16 10:53:21;;;;;;;6.05;2.55;;;;;;;;;;5054072;28;20423;-65
2024/02/16 10:55:48;;;;;;;8.18;2.88;;;;;;;;;;5056092;28;20048;-65
2024/02/16 10:58:15;;;;;;;5.35;2.42;;;;;;;;;;5067074;28;20417;-66
2024/02/16 11:00:53;;;;;;;7.20;2.63;;;;;;;;;;5067575;28;20041;-66
2024/02/16 11:03:23;;;;;;;6.03;2.65;;;;;;;;;;5056183;28;20045;-65
2024/02/16 11:05:49;;;;;;;4.55;2.65;;;;;;;;;;5055071;28;20400;-65
2024/02/16 11:08:17;;;;;;;5.88;2.58;;;;;;;;;;5058842;28;20048;-66
2024/02/16 11:10:54;;;;;;;10.18;3.10;;;;;;;;;;5067087;28;20048;-43
2024/02/16 11:13:23;;;;;;;5.75;2.47;;;;;;;;;;5061325;28;20052;-43
2024/02/16 11:15:57;;;;;;;5.53;2.50;;;;;;;;;;5055832;28;20071;-69
2024/02/16 11:18:25;;;;;;;5.30;2.50;;;;;;;;;;5071275;28;20075;-65
2024/02/16 11:20:54;;;;;;;5.63;2.70;;;;;;;;;;5072690;28;20059;-68
2024/02/16 11:23:25;;;;;;;5.47;2.60;;;;;;;;;;5069505;28;20564;-64
2024/02/16 11:25:52;;;;;;;5.47;2.70;;;;;;;;;;5062089;28;20060;-64
2024/02/16 11:28:19;;;;;;;7.15;2.75;;;;;;;;;;5052756;28;20080;-67
2024/02/16 11:30:46;;;;;;;4.78;2.63;;;;;;;;;;5072602;28;20056;-67
2024/02/16 11:33:13;;;;;;;10.90;3.42;;;;;;;;;;5064305;28;20060;-66
2024/02/16 11:35:41;;;;;;;5.50;2.78;;;;;;;;;;5052966;28;20065;-65
2024/02/16 11:38:08;;;;;;;6.63;2.75;;;;;;;;;;5069189;28;20057;-66
2024/02/16 11:40:34;;;;;;;5.45;2.72;;;;;;;;;;5054411;28;20045;-65
2024/02/16 11:43:01;;;;;;;4.97;2.65;;;;;;;;;;5063078;28;20123;-66
2024/02/16 11:45:28;;;;;;;6.45;2.78;;;;;;;;;;5071880;28;20061;-66
2024/02/16 11:48:04;;;;;;;5.03;2.85;;;;;;;;;;5071924;28;20049;-65
2024/02/16 11:50:30;;;;;;;5.85;3.17;;;;;;;;;;5072406;28;20055;-66
2024/02/16 11:52:59;;;;;;;7.05;2.95;;;;;;;;;;5060742;28;20053;-66
2024/02/16 11:55:26;;;;;;;7.45;3.10;;;;;;;;;;5057363;28;20059;-66
2024/02/16 11:57:54;;;;;;;5.97;3.03;;;;;;;;;;5059387;28;20400;-60
2024/02/16 12:00:21;;;;;;;5.97;2.55;;;;;;;;;;5063000;28;20076;-59
2024/02/16 12:02:48;;;;;;;6.13;3.22;;;;;;;;;;5068516;28;20055;-59
2024/02/16 12:05:15;;;;;;;7.38;3.15;;;;;;;;;;5076187;28;20052;-59
2024/02/16 12:07:42;;;;;;;6.93;3.30;;;;;;;;;;5075537;28;20056;-59
2024/02/16 12:10:11;;;;;;;8.75;2.90;;;;;;;;;;5076113;28;20053;-59
2024/02/16 12:12:38;;;;;;;7.50;3.28;;;;;;;;;;5061353;28;20484;-61
2024/02/16 12:15:06;;;;;;;5.28;3.20;;;;;;;;;;5057894;28;20053;-60
2024/02/16 12:17:33;;;;;;;6.95;3.30;;;;;;;;;;5050925;28;20060;-61
2024/02/16 12:20:00;;;;;;;5.75;3.17;;;;;;;;;;5052358;28;20089;-59
2024/02/16 12:22:26;;;;;;;6.47;3.28;;;;;;;;;;5057816;28;20071;-59
2024/02/16 12:24:53;;;;;;;5.95;3.30;;;;;;;;;;5053188;28;20049;-59
2024/02/16 12:27:21;;;;;;;4.75;3.00;;;;;;;;;;5056191;28;20049;-58
2024/02/16 12:29:48;;;;;;;7.82;3.35;;;;;;;;;;5064675;28;20403;-59
2024/02/16 12:32:18;;;;;;;4.57;2.80;;;;;;;;;;5065250;28;20059;-59
2024/02/16 12:34:45;;;;;;;6.78;3.55;;;;;;;;;;5063700;28;20399;-58
2024/02/16 12:37:12;;;;;;;6.20;3.15;;;;;;;;;;5061912;28;20069;-59
2024/02/16 12:39:39;;;;;;;6.22;3.20;;;;;;;;;;5057013;28;20049;-58
2024/02/16 12:42:07;;;;;;;7.47;3.13;;;;;;;;;;5061955;28;20049;-58
2024/02/16 12:44:35;;;;;;;5.03;2.92;;;;;;;;;;5056983;28;20049;-59
2024/02/16 12:47:02;;;;;;;5.97;3.13;;;;;;;;;;5058316;28;20052;-60
2024/02/16 12:49:29;;;;;;;8.00;2.78;;;;;;;;;;5060911;28;20053;-59
2024/02/16 12:51:57;;;;;;;8.70;3.17;;;;;;;;;;5061978;28;20101;-58
2024/02/16 12:54:24;;;;;;;6.10;2.58;;;;;;;;;;5061276;28;20067;-58
2024/02/16 12:56:52;;;;;;;3.30;2.42;;;;;;;;;;5055939;28;20063;-59
2024/02/16 12:59:18;;;;;;;4.93;2.60;;;;;;;;;;5074249;28;20064;-59
2024/02/16 13:01:47;;;;;;;5.13;2.70;;;;;;;;;;5062596;28;20047;-57
2024/02/16 13:04:20;;;;;;;5.70;2.88;;;;;;;;;;5071082;28;20059;-58
2024/02/16 13:06:47;;;;;;;13.25;3.60;;;;;;;;;;5060268;28;20052;-58
2024/02/16 13:09:14;;;;;;;6.80;3.17;;;;;;;;;;5073968;28;20056;-58
2024/02/16 13:11:41;;;;;;;11.15;3.80;;;;;;;;;;5074052;28;20048;-58
2024/02/16 13:14:08;;;;;;;11.75;4.65;;;;;;;;;;5056270;28;20061;-59
2024/02/16 13:16:35;;;;;;;8.02;4.40;;;;;;;;;;5059308;28;20064;-59
2024/02/16 13:19:03;;;;;;;8.85;4.50;;;;;;;;;;5064071;28;20060;-59
2024/02/16 13:21:30;;;;;;;9.63;4.80;;;;;;;;;;5064969;28;20385;-58
2024/02/16 13:23:57;;;;;;;10.20;5.38;;;;;;;;;;5071233;28;20479;-58
2024/02/16 13:26:24;;;;;;;15.77;6.65;;;;;;;;;;5072449;28;20056;-58
2024/02/16 13:28:52;;;;;;;9.90;5.95;;;;;;;;;;5064897;28;20045;-59
2024/02/16 13:31:19;;;;;;;11.27;5.53;;;;;;;;;;5060420;28;20056;-58
2024/02/16 13:33:45;;;;;;;11.77;6.07;;;;;;;;;;5057920;28;20040;-59
2024/02/16 13:36:13;;;;;;;9.32;5.88;;;;;;;;;;5054545;28;20060;-58
2024/02/16 13:38:40;;;;;;;10.60;5.53;;;;;;;;;;5062059;28;20045;-59
2024/02/16 13:41:07;;;;;;;10.70;5.70;;;;;;;;;;5062319;28;20059;-58
2024/02/16 13:43:34;;;;;;;9.98;5.43;;;;;;;;;;5065286;28;20506;-59
2024/02/16 13:46:01;;;;;;;10.40;4.85;;;;;;;;;;5064746;28;20064;-58
2024/02/16 13:48:29;;;;;;;10.02;4.70;;;;;;;;;;5054427;28;20063;-58
2024/02/16 13:50:56;;;;;;;7.82;4.65;;;;;;;;;;5060655;28;20056;-59
2024/02/16 13:53:25;;;;;;;8.73;5.60;;;;;;;;;;5071654;28;20054;-58
2024/02/16 13:55:51;;;;;;;9.20;5.10;;;;;;;;;;5073571;28;20051;-58
2024/02/16 13:58:18;;;;;;;10.65;5.22;;;;;;;;;;5067591;28;20072;-58
2024/02/16 14:00:45;;;;;;;8.68;4.80;;;;;;;;;;5066942;28;20052;-59
2024/02/16 14:03:13;;;;;;;8.10;4.90;;;;;;;;;;5055121;28;20053;-59
2024/02/16 14:05:40;;;;;;;10.10;5.45;;;;;;;;;;5057588;28;20049;-59
2024/02/16 14:08:07;;;;;;;8.30;5.38;;;;;;;;;;5054044;28;20056;-59
2024/02/16 14:10:35;;;;;;;9.93;5.07;;;;;;;;;;5066587;28;20056;-58
2024/02/16 14:13:02;;;;;;;7.95;5.05;;;;;;;;;;5063065;28;20056;-59
2024/02/16 14:15:29;;;;;;;9.32;5.95;;;;;;;;;;5058047;28;20045;-58
2024/02/16 14:17:56;;;;;;;10.65;6.78;;;;;;;;;;5066246;28;20414;-58
2024/02/16 14:20:23;;;;;;;10.43;7.10;;;;;;;;;;5068800;28;20060;-58
2024/02/16 14:22:49;;;;;;;10.65;7.30;;;;;;;;;;5061919;28;20052;-59
2024/02/16 14:25:16;;;;;;;9.90;6.65;;;;;;;;;;5056817;28;20057;-58
2024/02/16 14:27:44;;;;;;;12.00;7.07;;;;;;;;;;5055217;28;20509;-46
2024/02/16 14:30:12;;;;;;;11.32;8.27;;;;;;;;;;5067193;28;20057;-47
2024/02/16 14:32:39;;;;;;;12.35;8.25;;;;;;;;;;5053793;28;20049;-47
2024/02/16 14:35:06;;;;;;;13.90;9.32;;;;;;;;;;5059923;28;20048;-47
2024/02/16 14:37:33;;;;;;;10.68;7.70;;;;;;;;;;5062136;28;20153;-49
2024/02/16 14:40:01;;;;;;;13.45;9.40;;;;;;;;;;5064805;28;20055;-48
2024/02/16 14:42:28;;;;;;;12.43;9.25;;;;;;;;;;5063138;28;20045;-47
2024/02/16 14:44:56;;;;;;;9.00;7.78;;;;;;;;;;5054562;28;20045;-47